Flight Number: AVA1542 Duration: 2:15
Departure: Munich intl Airport (EDDM) at 13:00 Distance: 820.399 Nm
Arrival: Athens Eleftherios Venizelos (LGAV) at 15:15 Equipment: A321

Weather Information
Munchen, Germany (EDDM) 48-21N 011-47E Feb 27, 2024 - 11:50 AM EST / 2024.02.27 1650 UTC
Wind: from the WNW (290 degrees) at 1 MPH (1 KT):0
Visibility: greater than 7 mile(s):0 Temperature: 44 F (7 C) Dew Point: 39 F (4 C) Relative Humidity: 81% Pressure (altimeter): 29.85 in. Hg (1011 hPa)
ob: EDDM 271650Z AUTO 29001KT CAVOK 07/04 Q1011 NOSIG cycle: 17
Sunrise: 06:01 Sunset: 16:49 (UTC)

Athens Eleftherios Venizelos International Airport, Greece (LGAV) 37-56N 023-56E Feb 27, 2024 - 11:50 AM EST / 2024.02.27 1650 UTC
Wind: from the NNE (030 degrees) at 5 MPH (4 KT):0
Visibility: greater than 7 mile(s):0
Sky conditions: mostly cloudy Temperature: 59 F (15 C) Dew Point: 51 F (11 C) Relative Humidity: 76% Pressure (altimeter): 30.06 in. Hg (1018 hPa)
ob: LGAV 271650Z 03004KT 9999 BKN025 15/11 Q1018 NOSIG cycle: 17
Sunrise: 05:01 Sunset: 16:12 (UTC)

TAF:2024/02/27 12:12 TAF TAF LGAV 271100Z 2712/2812 05010KT 9999 FEW018 SCT030 BECMG 2718/2720 VRB05KT BECMG 2808/2810 12012KT PROB30 TEMPO 2801/2812 RA SCT016 BKN025 BKN070

Previous Pireps for this route
Date Flightnr Aircraft Flight time Fuel used Landing rate On time
2015-08-06AVA1542A32102.3013978-359No
(pireps marked green are flown by you)

Route map